sensor_id;sensor_type;location;lat;lon;timestamp;pressure;altitude;pressure_sealevel;temperature;humidity
76592;BME280;65481;47.600;19.682;2024-02-28T00:00:23;100261.09;;;10.58;100.00
76592;BME280;65481;47.600;19.682;2024-02-28T00:05:24;100260.75;;;10.55;100.00
76592;BME280;65481;47.600;19.682;2024-02-28T00:10:24;100252.34;;;10.46;100.00
76592;BME280;65481;47.600;19.682;2024-02-28T00:15:25;100251.47;;;10.34;100.00
76592;BME280;65481;47.600;19.682;2024-02-28T00:20:25;100257.38;;;10.17;100.00
76592;BME280;65481;47.600;19.682;2024-02-28T00:25:27;100259.31;;;10.10;100.00
76592;BME280;65481;47.600;19.682;2024-02-28T00:30:27;100253.47;;;10.08;100.00
76592;BME280;65481;47.600;19.682;2024-02-28T00:35:33;100258.38;;;10.04;100.00
76592;BME280;65481;47.600;19.682;2024-02-28T00:40:34;100267.53;;;10.02;100.00
76592;BME280;65481;47.600;19.682;2024-02-28T00:45:34;100274.06;;;9.99;100.00
76592;BME280;65481;47.600;19.682;2024-02-28T00:50:36;100269.22;;;9.96;100.00
76592;BME280;65481;47.600;19.682;2024-02-28T00:55:36;100273.31;;;9.92;100.00
76592;BME280;65481;47.600;19.682;2024-02-28T01:00:36;100271.22;;;9.82;100.00
76592;BME280;65481;47.600;19.682;2024-02-28T01:05:37;100280.56;;;9.78;100.00
76592;BME280;65481;47.600;19.682;2024-02-28T01:10:38;100281.84;;;9.75;100.00
76592;BME280;65481;47.600;19.682;2024-02-28T01:15:41;100279.06;;;9.70;100.00
76592;BME280;65481;47.600;19.682;2024-02-28T01:20:42;100283.03;;;9.61;100.00
76592;BME280;65481;47.600;19.682;2024-02-28T01:25:43;100285.28;;;9.57;100.00
76592;BME280;65481;47.600;19.682;2024-02-28T01:30:43;100286.53;;;9.54;100.00
76592;BME280;65481;47.600;19.682;2024-02-28T01:35:44;100293.31;;;9.44;100.00
76592;BME280;65481;47.600;19.682;2024-02-28T01:40:47;100292.66;;;9.30;100.00
76592;BME280;65481;47.600;19.682;2024-02-28T01:45:48;100291.13;;;9.22;100.00
76592;BME280;65481;47.600;19.682;2024-02-28T01:50:48;100288.31;;;9.17;100.00
76592;BME280;65481;47.600;19.682;2024-02-28T01:55:49;100280.09;;;9.06;100.00
76592;BME280;65481;47.600;19.682;2024-02-28T02:00:50;100279.97;;;9.01;100.00
76592;BME280;65481;47.600;19.682;2024-02-28T02:05:50;100287.31;;;8.92;100.00
76592;BME280;65481;47.600;19.682;2024-02-28T02:10:51;100292.19;;;8.89;100.00
76592;BME280;65481;47.600;19.682;2024-02-28T02:15:51;100296.22;;;8.91;100.00
76592;BME280;65481;47.600;19.682;2024-02-28T02:20:56;100281.47;;;8.90;100.00
76592;BME280;65481;47.600;19.682;2024-02-28T02:25:58;100288.09;;;8.93;100.00
76592;BME280;65481;47.600;19.682;2024-02-28T02:30:58;100302.47;;;8.97;100.00
76592;BME280;65481;47.600;19.682;2024-02-28T02:35:59;100296.22;;;8.91;100.00
76592;BME280;65481;47.600;19.682;2024-02-28T02:40:59;100306.75;;;8.91;100.00
76592;BME280;65481;47.600;19.682;2024-02-28T02:46:00;100311.09;;;8.79;100.00
76592;BME280;65481;47.600;19.682;2024-02-28T02:51:00;100309.28;;;8.79;100.00
76592;BME280;65481;47.600;19.682;2024-02-28T02:56:03;100320.38;;;8.82;100.00
76592;BME280;65481;47.600;19.682;2024-02-28T03:01:04;100313.50;;;8.81;100.00
76592;BME280;65481;47.600;19.682;2024-02-28T03:06:05;100320.38;;;8.82;100.00
76592;BME280;65481;47.600;19.682;2024-02-28T03:11:05;100323.56;;;8.90;100.00
76592;BME280;65481;47.600;19.682;2024-02-28T03:16:08;100324.16;;;8.92;100.00
76592;BME280;65481;47.600;19.682;2024-02-28T03:21:09;100327.38;;;8.94;100.00
76592;BME280;65481;47.600;19.682;2024-02-28T03:26:09;100319.31;;;8.89;100.00
76592;BME280;65481;47.600;19.682;2024-02-28T03:31:10;100319.50;;;8.88;100.00
76592;BME280;65481;47.600;19.682;2024-02-28T03:36:10;100330.09;;;8.81;100.00
76592;BME280;65481;47.600;19.682;2024-02-28T03:41:10;100332.78;;;8.74;100.00
76592;BME280;65481;47.600;19.682;2024-02-28T03:46:11;100332.78;;;8.74;100.00
76592;BME280;65481;47.600;19.682;2024-02-28T03:51:12;100340.84;;;8.79;100.00
76592;BME280;65481;47.600;19.682;2024-02-28T03:56:12;100341.81;;;8.85;100.00
76592;BME280;65481;47.600;19.682;2024-02-28T04:01:13;100337.75;;;8.89;100.00
76592;BME280;65481;47.600;19.682;2024-02-28T04:06:13;100347.63;;;8.94;100.00
76592;BME280;65481;47.600;19.682;2024-02-28T04:11:14;100355.75;;;8.92;100.00
76592;BME280;65481;47.600;19.682;2024-02-28T04:16:14;100352.72;;;8.89;100.00
76592;BME280;65481;47.600;19.682;2024-02-28T04:21:15;100355.34;;;8.89;100.00
76592;BME280;65481;47.600;19.682;2024-02-28T04:26:15;100357.00;;;8.83;100.00
76592;BME280;65481;47.600;19.682;2024-02-28T04:31:16;100346.47;;;8.83;100.00
76592;BME280;65481;47.600;19.682;2024-02-28T04:36:16;100348.94;;;8.78;100.00
76592;BME280;65481;47.600;19.682;2024-02-28T04:41:17;100364.94;;;8.76;100.00
76592;BME280;65481;47.600;19.682;2024-02-28T04:46:17;100369.28;;;8.64;100.00
76592;BME280;65481;47.600;19.682;2024-02-28T04:51:18;100375.31;;;8.64;100.00
76592;BME280;65481;47.600;19.682;2024-02-28T04:56:18;100378.97;;;8.63;100.00
76592;BME280;65481;47.600;19.682;2024-02-28T05:01:19;100386.88;;;8.63;100.00
76592;BME280;65481;47.600;19.682;2024-02-28T05:06:19;100391.53;;;8.61;100.00
76592;BME280;65481;47.600;19.682;2024-02-28T05:11:20;100389.53;;;8.57;100.00
76592;BME280;65481;47.600;19.682;2024-02-28T05:16:20;100386.66;;;8.65;100.00
76592;BME280;65481;47.600;19.682;2024-02-28T05:21:22;100385.44;;;8.68;100.00
76592;BME280;65481;47.600;19.682;2024-02-28T05:26:22;100384.63;;;8.67;100.00
76592;BME280;65481;47.600;19.682;2024-02-28T05:31:24;100390.47;;;8.69;100.00
76592;BME280;65481;47.600;19.682;2024-02-28T05:36:27;100391.88;;;8.72;100.00
76592;BME280;65481;47.600;19.682;2024-02-28T05:41:27;100401.19;;;8.74;100.00
76592;BME280;65481;47.600;19.682;2024-02-28T05:46:28;100397.09;;;8.78;100.00
76592;BME280;65481;47.600;19.682;2024-02-28T05:51:29;100413.91;;;8.77;100.00
76592;BME280;65481;47.600;19.682;2024-02-28T05:56:29;100417.31;;;8.85;100.00
76592;BME280;65481;47.600;19.682;2024-02-28T06:01:30;100425.63;;;8.82;100.00
76592;BME280;65481;47.600;19.682;2024-02-28T06:06:30;100426.09;;;8.72;100.00
76592;BME280;65481;47.600;19.682;2024-02-28T06:11:31;100415.31;;;8.80;100.00
76592;BME280;65481;47.600;19.682;2024-02-28T06:16:33;100408.59;;;8.84;100.00
76592;BME280;65481;47.600;19.682;2024-02-28T06:21:34;100419.97;;;8.85;100.00
76592;BME280;65481;47.600;19.682;2024-02-28T06:26:34;100433.13;;;8.85;100.00
76592;BME280;65481;47.600;19.682;2024-02-28T06:31:35;100428.00;;;8.90;100.00
76592;BME280;65481;47.600;19.682;2024-02-28T06:36:35;100428.59;;;8.92;100.00
76592;BME280;65481;47.600;19.682;2024-02-28T06:41:36;100442.72;;;8.98;100.00
76592;BME280;65481;47.600;19.682;2024-02-28T06:46:38;100455.06;;;9.04;100.00
76592;BME280;65481;47.600;19.682;2024-02-28T06:51:38;100455.66;;;9.06;100.00
76592;BME280;65481;47.600;19.682;2024-02-28T06:56:39;100466.78;;;9.08;100.00
76592;BME280;65481;47.600;19.682;2024-02-28T07:01:39;100455.38;;;9.21;100.00
76592;BME280;65481;47.600;19.682;2024-02-28T07:06:40;100440.84;;;9.37;100.00
76592;BME280;65481;47.600;19.682;2024-02-28T07:11:40;100462.88;;;9.43;100.00
76592;BME280;65481;47.600;19.682;2024-02-28T07:16:41;100464.13;;;9.40;100.00
76592;BME280;65481;47.600;19.682;2024-02-28T07:21:41;100474.41;;;9.48;100.00
76592;BME280;65481;47.600;19.682;2024-02-28T07:26:42;100478.69;;;9.68;100.00
76592;BME280;65481;47.600;19.682;2024-02-28T07:31:42;100485.69;;;9.81;100.00
76592;BME280;65481;47.600;19.682;2024-02-28T07:36:43;100488.50;;;9.86;100.00
76592;BME280;65481;47.600;19.682;2024-02-28T07:41:43;100479.94;;;9.91;100.00
76592;BME280;65481;47.600;19.682;2024-02-28T07:46:44;100485.47;;;10.08;100.00
76592;BME280;65481;47.600;19.682;2024-02-28T07:51:45;100484.97;;;10.36;100.00
76592;BME280;65481;47.600;19.682;2024-02-28T07:56:45;100487.88;;;10.28;100.00
76592;BME280;65481;47.600;19.682;2024-02-28T08:01:46;100495.13;;;10.33;100.00
76592;BME280;65481;47.600;19.682;2024-02-28T08:06:46;100495.47;;;10.43;100.00
76592;BME280;65481;47.600;19.682;2024-02-28T08:11:47;100499.56;;;10.39;100.00
76592;BME280;65481;47.600;19.682;2024-02-28T08:16:47;100500.56;;;10.38;100.00
76592;BME280;65481;47.600;19.682;2024-02-28T08:21:48;100506.38;;;10.47;100.00
76592;BME280;65481;47.600;19.682;2024-02-28T08:26:48;100510.63;;;10.66;100.00
76592;BME280;65481;47.600;19.682;2024-02-28T08:31:49;100523.72;;;10.91;100.00
76592;BME280;65481;47.600;19.682;2024-02-28T08:36:49;100512.81;;;11.18;100.00
76592;BME280;65481;47.600;19.682;2024-02-28T08:41:50;100520.31;;;11.33;100.00
76592;BME280;65481;47.600;19.682;2024-02-28T08:46:50;100519.50;;;11.63;98.87
76592;BME280;65481;47.600;19.682;2024-02-28T08:51:50;100520.81;;;12.20;97.71
76592;BME280;65481;47.600;19.682;2024-02-28T08:56:51;100522.84;;;12.42;96.01
76592;BME280;65481;47.600;19.682;2024-02-28T09:01:51;100532.81;;;12.64;94.41
76592;BME280;65481;47.600;19.682;2024-02-28T09:06:52;100534.22;;;12.95;92.91
76592;BME280;65481;47.600;19.682;2024-02-28T09:11:55;100526.13;;;13.60;89.17
76592;BME280;65481;47.600;19.682;2024-02-28T09:16:56;100536.72;;;13.77;88.01
76592;BME280;65481;47.600;19.682;2024-02-28T09:22:03;100532.78;;;13.97;87.94
76592;BME280;65481;47.600;19.682;2024-02-28T09:27:03;100536.13;;;14.09;86.19
76592;BME280;65481;47.600;19.682;2024-02-28T09:32:04;100539.25;;;14.84;82.76
76592;BME280;65481;47.600;19.682;2024-02-28T09:37:05;100536.59;;;16.04;78.09
76592;BME280;65481;47.600;19.682;2024-02-28T09:42:06;100533.47;;;16.18;78.07
76592;BME280;65481;47.600;19.682;2024-02-28T09:47:07;100540.13;;;15.78;76.95
76592;BME280;65481;47.600;19.682;2024-02-28T09:52:08;100543.66;;;15.56;76.91
76592;BME280;65481;47.600;19.682;2024-02-28T09:57:11;100543.00;;;15.38;77.13
76592;BME280;65481;47.600;19.682;2024-02-28T10:02:12;100539.63;;;15.21;77.58
76592;BME280;65481;47.600;19.682;2024-02-28T10:07:15;100539.16;;;15.02;78.24
76592;BME280;65481;47.600;19.682;2024-02-28T10:12:16;100543.84;;;16.14;74.69
76592;BME280;65481;47.600;19.682;2024-02-28T10:17:16;100532.22;;;15.88;74.56
76592;BME280;65481;47.600;19.682;2024-02-28T10:22:17;100530.44;;;15.66;75.48
76592;BME280;65481;47.600;19.682;2024-02-28T10:27:17;100537.66;;;15.71;74.86
76592;BME280;65481;47.600;19.682;2024-02-28T10:32:19;100533.16;;;16.04;74.34
76592;BME280;65481;47.600;19.682;2024-02-28T10:37:20;100536.00;;;16.40;72.46
76592;BME280;65481;47.600;19.682;2024-02-28T10:42:22;100537.56;;;17.10;69.75
76592;BME280;65481;47.600;19.682;2024-02-28T10:47:27;100541.63;;;17.49;68.15
76592;BME280;65481;47.600;19.682;2024-02-28T10:52:28;100548.03;;;17.63;66.29
76592;BME280;65481;47.600;19.682;2024-02-28T10:57:33;100552.03;;;17.24;66.61
76592;BME280;65481;47.600;19.682;2024-02-28T11:02:35;100549.06;;;18.19;64.95
76592;BME280;65481;47.600;19.682;2024-02-28T11:07:35;100533.38;;;17.61;65.71
76592;BME280;65481;47.600;19.682;2024-02-28T11:12:37;100536.16;;;18.47;63.69
76592;BME280;65481;47.600;19.682;2024-02-28T11:17:38;100527.19;;;18.77;62.79
76592;BME280;65481;47.600;19.682;2024-02-28T11:22:39;100532.78;;;18.15;65.36
76592;BME280;65481;47.600;19.682;2024-02-28T11:27:47;100534.00;;;18.49;65.05
76592;BME280;65481;47.600;19.682;2024-02-28T11:32:48;100538.53;;;18.54;64.64
76592;BME280;65481;47.600;19.682;2024-02-28T11:37:49;100523.22;;;18.70;64.68
76592;BME280;65481;47.600;19.682;2024-02-28T11:42:49;100515.66;;;19.32;62.99
76592;BME280;65481;47.600;19.682;2024-02-28T11:47:50;100517.06;;;18.74;62.99
76592;BME280;65481;47.600;19.682;2024-02-28T11:52:50;100523.81;;;19.12;62.95
76592;BME280;65481;47.600;19.682;2024-02-28T11:57:51;100532.75;;;18.97;62.21
76592;BME280;65481;47.600;19.682;2024-02-28T12:02:51;100526.53;;;19.06;62.55
76592;BME280;65481;47.600;19.682;2024-02-28T12:07:52;100524.63;;;19.12;61.83
76592;BME280;65481;47.600;19.682;2024-02-28T12:12:59;100510.94;;;18.69;63.47
76592;BME280;65481;47.600;19.682;2024-02-28T12:17:59;100506.94;;;18.66;63.31
76592;BME280;65481;47.600;19.682;2024-02-28T12:23:00;100507.03;;;18.51;64.07
76592;BME280;65481;47.600;19.682;2024-02-28T12:28:00;100506.94;;;18.66;63.79
76592;BME280;65481;47.600;19.682;2024-02-28T12:33:01;100500.53;;;18.67;63.76
76592;BME280;65481;47.600;19.682;2024-02-28T12:38:02;100511.22;;;18.67;63.86
76592;BME280;65481;47.600;19.682;2024-02-28T12:43:02;100501.53;;;18.76;63.71
76592;BME280;65481;47.600;19.682;2024-02-28T12:48:03;100498.63;;;18.73;62.72
76592;BME280;65481;47.600;19.682;2024-02-28T12:53:06;100489.69;;;18.98;62.91
76592;BME280;65481;47.600;19.682;2024-02-28T12:58:07;100499.63;;;18.82;64.10
76592;BME280;65481;47.600;19.682;2024-02-28T13:03:08;100488.03;;;18.57;64.59
76592;BME280;65481;47.600;19.682;2024-02-28T13:08:09;100491.56;;;18.37;64.73
76592;BME280;65481;47.600;19.682;2024-02-28T13:13:09;100499.63;;;18.32;64.63
76592;BME280;65481;47.600;19.682;2024-02-28T13:18:10;100501.56;;;17.95;65.37
76592;BME280;65481;47.600;19.682;2024-02-28T13:23:11;100506.66;;;17.81;65.80
76592;BME280;65481;47.600;19.682;2024-02-28T13:28:11;100492.25;;;17.72;66.38
76592;BME280;65481;47.600;19.682;2024-02-28T13:33:12;100497.84;;;17.76;66.56
76592;BME280;65481;47.600;19.682;2024-02-28T13:38:12;100480.50;;;17.89;65.90
76592;BME280;65481;47.600;19.682;2024-02-28T13:43:13;100491.97;;;17.89;65.85
76592;BME280;65481;47.600;19.682;2024-02-28T13:48:19;100477.81;;;17.83;65.36
76592;BME280;65481;47.600;19.682;2024-02-28T13:53:21;100494.16;;;17.66;66.48
76592;BME280;65481;47.600;19.682;2024-02-28T13:58:22;100489.09;;;17.18;67.19
76592;BME280;65481;47.600;19.682;2024-02-28T14:03:22;100487.19;;;17.08;67.32
76592;BME280;65481;47.600;19.682;2024-02-28T14:08:25;100480.53;;;17.06;68.07
76592;BME280;65481;47.600;19.682;2024-02-28T14:13:26;100483.19;;;17.26;68.23
76592;BME280;65481;47.600;19.682;2024-02-28T14:18:27;100494.41;;;17.34;68.49
76592;BME280;65481;47.600;19.682;2024-02-28T14:23:27;100482.16;;;17.38;68.75
76592;BME280;65481;47.600;19.682;2024-02-28T14:28:27;100485.06;;;17.36;69.09
76592;BME280;65481;47.600;19.682;2024-02-28T14:33:28;100491.72;;;17.13;69.82
76592;BME280;65481;47.600;19.682;2024-02-28T14:38:29;100484.25;;;17.00;70.31
76592;BME280;65481;47.600;19.682;2024-02-28T14:43:29;100490.56;;;16.73;71.20
76592;BME280;65481;47.600;19.682;2024-02-28T14:48:30;100492.16;;;16.69;71.85
76592;BME280;65481;47.600;19.682;2024-02-28T14:53:31;100488.63;;;16.47;73.26
76592;BME280;65481;47.600;19.682;2024-02-28T14:58:31;100494.38;;;16.24;74.24
76592;BME280;65481;47.600;19.682;2024-02-28T15:03:32;100486.59;;;16.12;75.15
76592;BME280;65481;47.600;19.682;2024-02-28T15:08:32;100500.34;;;15.98;76.26
76592;BME280;65481;47.600;19.682;2024-02-28T15:13:33;100500.22;;;15.78;77.41
76592;BME280;65481;47.600;19.682;2024-02-28T15:18:33;100495.03;;;15.60;77.86
76592;BME280;65481;47.600;19.682;2024-02-28T15:23:34;100500.69;;;15.37;79.02
76592;BME280;65481;47.600;19.682;2024-02-28T15:28:35;100492.34;;;15.23;80.06
76592;BME280;65481;47.600;19.682;2024-02-28T15:33:35;100503.38;;;15.09;80.76
76592;BME280;65481;47.600;19.682;2024-02-28T15:38:36;100501.81;;;14.86;82.17
76592;BME280;65481;47.600;19.682;2024-02-28T15:43:36;100499.44;;;14.67;83.27
76592;BME280;65481;47.600;19.682;2024-02-28T15:48:37;100498.97;;;14.48;84.20
76592;BME280;65481;47.600;19.682;2024-02-28T15:53:37;100503.84;;;14.34;84.84
76592;BME280;65481;47.600;19.682;2024-02-28T15:58:38;100504.19;;;14.21;85.16
76592;BME280;65481;47.600;19.682;2024-02-28T16:03:39;100524.88;;;14.19;85.55
76592;BME280;65481;47.600;19.682;2024-02-28T16:08:42;100517.78;;;14.07;85.91
76592;BME280;65481;47.600;19.682;2024-02-28T16:13:42;100515.97;;;13.91;86.52
76592;BME280;65481;47.600;19.682;2024-02-28T16:18:43;100518.88;;;13.72;87.47
76592;BME280;65481;47.600;19.682;2024-02-28T16:23:44;100532.72;;;13.57;87.91
76592;BME280;65481;47.600;19.682;2024-02-28T16:28:44;100535.44;;;13.45;88.50
76592;BME280;65481;47.600;19.682;2024-02-28T16:33:44;100541.69;;;13.27;89.33
76592;BME280;65481;47.600;19.682;2024-02-28T16:38:45;100543.03;;;13.13;90.51
76592;BME280;65481;47.600;19.682;2024-02-28T16:43:45;100546.16;;;13.10;90.62
76592;BME280;65481;47.600;19.682;2024-02-28T16:48:46;100550.31;;;13.06;91.02
76592;BME280;65481;47.600;19.682;2024-02-28T16:53:46;100539.38;;;13.02;91.51
76592;BME280;65481;47.600;19.682;2024-02-28T16:58:47;100544.81;;;12.95;92.07
76592;BME280;65481;47.600;19.682;2024-02-28T17:03:48;100540.94;;;12.86;92.67
76592;BME280;65481;47.600;19.682;2024-02-28T17:08:48;100547.19;;;12.80;93.11
76592;BME280;65481;47.600;19.682;2024-02-28T17:13:49;100556.63;;;12.76;93.59
76592;BME280;65481;47.600;19.682;2024-02-28T17:18:49;100563.41;;;12.71;93.69
76592;BME280;65481;47.600;19.682;2024-02-28T17:23:50;100570.69;;;12.64;94.30
76592;BME280;65481;47.600;19.682;2024-02-28T17:28:50;100572.06;;;12.55;94.68
76592;BME280;65481;47.600;19.682;2024-02-28T17:33:51;100566.56;;;12.45;95.38
76592;BME280;65481;47.600;19.682;2024-02-28T17:38:51;100555.28;;;12.37;95.61
76592;BME280;65481;47.600;19.682;2024-02-28T17:43:52;100555.28;;;12.25;95.98
76592;BME280;65481;47.600;19.682;2024-02-28T17:48:52;100560.84;;;12.24;96.17
76592;BME280;65481;47.600;19.682;2024-02-28T17:53:54;100566.56;;;12.09;96.85
76592;BME280;65481;47.600;19.682;2024-02-28T17:58:54;100566.94;;;12.01;96.89
76592;BME280;65481;47.600;19.682;2024-02-28T18:03:55;100568.94;;;11.87;97.71
76592;BME280;65481;47.600;19.682;2024-02-28T18:08:56;100568.91;;;11.75;98.73
76592;BME280;65481;47.600;19.682;2024-02-28T18:13:56;100560.41;;;11.73;98.66
76592;BME280;65481;47.600;19.682;2024-02-28T18:18:57;100566.13;;;11.58;99.16
76592;BME280;65481;47.600;19.682;2024-02-28T18:23:58;100559.59;;;11.60;98.77
76592;BME280;65481;47.600;19.682;2024-02-28T18:28:58;100573.00;;;11.47;98.53
76592;BME280;65481;47.600;19.682;2024-02-28T18:34:00;100580.03;;;11.23;99.05
76592;BME280;65481;47.600;19.682;2024-02-28T18:39:01;100575.94;;;10.89;100.00
76592;BME280;65481;47.600;19.682;2024-02-28T18:44:03;100581.97;;;10.78;100.00
76592;BME280;65481;47.600;19.682;2024-02-28T18:49:04;100587.75;;;10.68;100.00
76592;BME280;65481;47.600;19.682;2024-02-28T18:54:05;100598.59;;;10.60;100.00
76592;BME280;65481;47.600;19.682;2024-02-28T18:59:06;100598.44;;;10.55;100.00
76592;BME280;65481;47.600;19.682;2024-02-28T19:04:06;100605.84;;;10.46;100.00
76592;BME280;65481;47.600;19.682;2024-02-28T19:09:07;100608.34;;;10.34;100.00
76592;BME280;65481;47.600;19.682;2024-02-28T19:14:09;100612.13;;;10.20;100.00
76592;BME280;65481;47.600;19.682;2024-02-28T19:19:09;100618.25;;;9.88;100.00
76592;BME280;65481;47.600;19.682;2024-02-28T19:24:10;100599.66;;;9.76;100.00
76592;BME280;65481;47.600;19.682;2024-02-28T19:29:10;100607.88;;;9.87;100.00
76592;BME280;65481;47.600;19.682;2024-02-28T19:34:12;100616.34;;;9.95;100.00
76592;BME280;65481;47.600;19.682;2024-02-28T19:39:13;100610.38;;;9.81;100.00
76592;BME280;65481;47.600;19.682;2024-02-28T19:44:14;100616.66;;;9.80;100.00
76592;BME280;65481;47.600;19.682;2024-02-28T19:49:15;100616.50;;;9.75;100.00
76592;BME280;65481;47.600;19.682;2024-02-28T19:54:16;100620.56;;;9.71;100.00
76592;BME280;65481;47.600;19.682;2024-02-28T19:59:17;100623.25;;;9.64;100.00
76592;BME280;65481;47.600;19.682;2024-02-28T20:04:17;100622.25;;;9.59;100.00
76592;BME280;65481;47.600;19.682;2024-02-28T20:09:17;100624.16;;;9.45;100.00
76592;BME280;65481;47.600;19.682;2024-02-28T20:14:18;100629.25;;;9.39;100.00
76592;BME280;65481;47.600;19.682;2024-02-28T20:19:18;100633.56;;;9.20;100.00
76592;BME280;65481;47.600;19.682;2024-02-28T20:24:19;100627.13;;;9.09;100.00
76592;BME280;65481;47.600;19.682;2024-02-28T20:29:20;100632.22;;;9.11;100.00
76592;BME280;65481;47.600;19.682;2024-02-28T20:34:20;100639.09;;;9.05;100.00
76592;BME280;65481;47.600;19.682;2024-02-28T20:39:21;100639.53;;;8.96;100.00
76592;BME280;65481;47.600;19.682;2024-02-28T20:44:21;100638.50;;;9.03;100.00
76592;BME280;65481;47.600;19.682;2024-02-28T20:49:24;100638.31;;;8.98;100.00
76592;BME280;65481;47.600;19.682;2024-02-28T20:54:24;100642.41;;;8.81;100.00
76592;BME280;65481;47.600;19.682;2024-02-28T20:59:25;100644.66;;;8.57;100.00
76592;BME280;65481;47.600;19.682;2024-02-28T21:04:26;100643.63;;;8.44;100.00
76592;BME280;65481;47.600;19.682;2024-02-28T21:09:27;100636.53;;;8.45;100.00
76592;BME280;65481;47.600;19.682;2024-02-28T21:14:27;100642.63;;;8.39;100.00
76592;BME280;65481;47.600;19.682;2024-02-28T21:19:28;100639.56;;;8.42;100.00
76592;BME280;65481;47.600;19.682;2024-02-28T21:24:29;100640.41;;;8.29;100.00
76592;BME280;65481;47.600;19.682;2024-02-28T21:29:31;100645.63;;;8.15;100.00
76592;BME280;65481;47.600;19.682;2024-02-28T21:34:31;100658.16;;;8.07;100.00
76592;BME280;65481;47.600;19.682;2024-02-28T21:39:32;100656.97;;;8.09;100.00
76592;BME280;65481;47.600;19.682;2024-02-28T21:44:34;100661.38;;;7.88;100.00
76592;BME280;65481;47.600;19.682;2024-02-28T21:49:34;100651.25;;;7.79;100.00
76592;BME280;65481;47.600;19.682;2024-02-28T21:54:35;100652.44;;;7.76;100.00
76592;BME280;65481;47.600;19.682;2024-02-28T21:59:35;100661.13;;;7.70;100.00
76592;BME280;65481;47.600;19.682;2024-02-28T22:04:36;100655.25;;;7.61;100.00
76592;BME280;65481;47.600;19.682;2024-02-28T22:09:36;100648.75;;;7.57;100.00
76592;BME280;65481;47.600;19.682;2024-02-28T22:14:37;100652.00;;;7.59;100.00
76592;BME280;65481;47.600;19.682;2024-02-28T22:19:37;100649.97;;;7.54;100.00
76592;BME280;65481;47.600;19.682;2024-02-28T22:24:37;100653.41;;;7.62;100.00
76592;BME280;65481;47.600;19.682;2024-02-28T22:29:38;100651.25;;;7.72;100.00
76592;BME280;65481;47.600;19.682;2024-02-28T22:34:38;100648.16;;;7.55;100.00
76592;BME280;65481;47.600;19.682;2024-02-28T22:39:39;100650.88;;;7.33;100.00
76592;BME280;65481;47.600;19.682;2024-02-28T22:44:39;100649.09;;;7.40;100.00
76592;BME280;65481;47.600;19.682;2024-02-28T22:49:40;100650.91;;;7.40;100.00
76592;BME280;65481;47.600;19.682;2024-02-28T22:54:43;100651.50;;;7.35;100.00
76592;BME280;65481;47.600;19.682;2024-02-28T22:59:44;100650.31;;;7.38;100.00
76592;BME280;65481;47.600;19.682;2024-02-28T23:22:35;100642.97;;;7.20;100.00
76592;BME280;65481;47.600;19.682;2024-02-28T23:27:35;100639.47;;;7.12;100.00
76592;BME280;65481;47.600;19.682;2024-02-28T23:32:36;100637.81;;;7.05;100.00
76592;BME280;65481;47.600;19.682;2024-02-28T23:37:37;100638.38;;;6.93;100.00
76592;BME280;65481;47.600;19.682;2024-02-28T23:42:39;100638.53;;;6.85;100.00
76592;BME280;65481;47.600;19.682;2024-02-28T23:47:40;100640.56;;;6.83;100.00
76592;BME280;65481;47.600;19.682;2024-02-28T23:52:41;100637.16;;;6.89;100.00
76592;BME280;65481;47.600;19.682;2024-02-28T23:57:41;100636.28;;;6.75;100.00
